createdAt,value
2022-12-18T00:00:29.469Z,57.11
2022-12-18T00:01:29.547Z,58.85
2022-12-18T00:02:29.490Z,56.84
2022-12-18T00:06:14.573Z,57.13
2022-12-18T00:07:14.578Z,55.44
2022-12-18T00:08:15.685Z,55.38
2022-12-18T00:09:15.670Z,56.58
2022-12-18T00:15:12.671Z,56.32
2022-12-18T00:16:12.692Z,55.29
2022-12-18T00:17:12.686Z,54.58
2022-12-18T00:18:16.096Z,54.79
2022-12-18T00:19:12.639Z,56.09
2022-12-18T00:20:13.750Z,57.15
2022-12-18T00:21:13.735Z,56.27
2022-12-18T00:22:13.738Z,54.93
2022-12-18T00:23:13.716Z,55.28
2022-12-18T00:24:13.715Z,56.99
2022-12-18T00:25:13.725Z,57.20
2022-12-18T00:26:13.691Z,56.96
2022-12-18T00:27:13.691Z,57.49
2022-12-18T00:28:13.678Z,56.39
2022-12-18T00:29:13.668Z,56.18
2022-12-18T00:30:13.662Z,56.13
2022-12-18T00:31:13.704Z,57.16
2022-12-18T00:32:13.651Z,59.23
2022-12-18T00:33:13.624Z,55.43
2022-12-18T00:34:13.607Z,58.24
2022-12-18T00:35:13.608Z,54.55
2022-12-18T00:36:13.611Z,56.30
2022-12-18T00:37:19.724Z,56.46
2022-12-18T00:38:15.587Z,57.60
2022-12-18T00:39:13.566Z,56.62
2022-12-18T00:40:13.566Z,58.23
2022-12-18T00:41:13.548Z,55.57
2022-12-18T00:42:13.558Z,56.00
2022-12-18T00:43:13.536Z,55.11
2022-12-18T00:44:13.524Z,55.63
2022-12-18T00:45:13.537Z,55.06
2022-12-18T00:46:13.592Z,55.73
2022-12-18T00:47:13.520Z,57.49
2022-12-18T00:48:13.490Z,54.81
2022-12-18T00:49:13.490Z,56.08
2022-12-18T00:52:58.608Z,55.26
2022-12-18T00:53:58.609Z,55.55
2022-12-18T00:55:01.853Z,56.39
2022-12-18T00:55:59.583Z,56.65
2022-12-18T00:56:59.004Z,55.43
2022-12-18T00:57:58.556Z,55.25
2022-12-18T00:58:58.539Z,54.36
2022-12-18T00:59:58.534Z,54.84
2022-12-18T01:00:58.547Z,56.00
2022-12-18T01:01:58.585Z,56.03
2022-12-18T01:02:58.534Z,55.95
2022-12-18T01:03:58.498Z,54.40
2022-12-18T01:04:58.487Z,55.24
2022-12-18T01:05:58.489Z,55.43
2022-12-18T01:06:58.486Z,54.82
2022-12-18T01:07:58.465Z,56.20
2022-12-18T01:08:58.453Z,53.87
2022-12-18T01:09:58.452Z,54.76
2022-12-18T01:10:58.443Z,56.68
2022-12-18T01:11:58.456Z,57.29
2022-12-18T01:12:58.420Z,56.44
2022-12-18T01:13:58.416Z,56.32
2022-12-18T01:14:58.409Z,55.22
2022-12-18T01:15:58.439Z,58.08
2022-12-18T01:16:58.404Z,55.53
2022-12-18T01:17:58.385Z,55.93
2022-12-18T01:18:58.372Z,54.97
2022-12-18T01:19:58.366Z,55.83
2022-12-18T01:20:58.359Z,54.62
2022-12-18T01:21:58.363Z,55.31
2022-12-18T01:22:59.465Z,54.60
2022-12-18T01:23:59.445Z,56.49
2022-12-18T01:24:59.426Z,55.09
2022-12-18T01:25:59.416Z,55.85
2022-12-18T01:26:59.429Z,54.97
2022-12-18T01:27:59.401Z,55.99
2022-12-18T01:28:59.398Z,54.67
2022-12-18T01:29:59.386Z,55.83
2022-12-18T01:30:59.362Z,54.54
2022-12-18T01:31:59.420Z,56.83
2022-12-18T01:32:59.357Z,56.70
2022-12-18T01:33:59.355Z,56.62
2022-12-18T01:34:59.339Z,57.04
2022-12-18T01:35:59.334Z,54.78
2022-12-18T01:36:59.343Z,54.70
2022-12-18T01:37:59.321Z,55.60
2022-12-18T01:38:59.301Z,55.14
2022-12-18T01:39:59.296Z,54.37
2022-12-18T01:40:59.286Z,55.11
2022-12-18T01:41:59.313Z,55.04
2022-12-18T01:45:44.446Z,54.98
2022-12-18T01:46:47.211Z,56.48
2022-12-18T01:47:45.745Z,54.74
2022-12-18T01:48:44.393Z,54.60
2022-12-18T01:49:44.384Z,54.28
2022-12-18T01:50:44.384Z,54.25
2022-12-18T01:51:44.364Z,56.11
2022-12-18T01:52:44.378Z,55.66
2022-12-18T01:53:44.346Z,56.39
2022-12-18T01:54:44.346Z,55.46
2022-12-18T01:55:44.325Z,55.37
2022-12-18T01:56:44.321Z,56.45
2022-12-18T01:57:44.332Z,54.56
2022-12-18T01:58:44.300Z,55.98
2022-12-18T01:59:44.294Z,57.47
2022-12-18T02:00:44.336Z,55.52
2022-12-18T02:01:44.410Z,54.55
2022-12-18T02:05:10.496Z,56.11
2022-12-18T02:06:10.488Z,55.76
2022-12-18T02:07:10.491Z,54.86
2022-12-18T02:08:10.473Z,55.26
2022-12-18T02:09:10.465Z,54.02
2022-12-18T02:10:10.454Z,54.17
2022-12-18T02:11:10.444Z,54.38
2022-12-18T02:12:10.452Z,54.30
2022-12-18T02:13:10.513Z,54.71
2022-12-18T02:14:10.416Z,54.31
2022-12-18T02:15:10.406Z,55.96
2022-12-18T02:16:11.568Z,54.38
2022-12-18T02:17:11.526Z,54.99
2022-12-18T02:18:11.505Z,54.66
2022-12-18T02:19:11.488Z,55.65
2022-12-18T02:20:11.508Z,55.16
2022-12-18T02:21:11.488Z,56.98
2022-12-18T02:22:11.483Z,55.64
2022-12-18T02:23:11.451Z,56.78
2022-12-18T02:24:11.450Z,54.29
2022-12-18T02:25:11.434Z,54.47
2022-12-18T02:26:11.442Z,55.68
2022-12-18T02:27:11.427Z,57.35
2022-12-18T02:28:11.409Z,55.82
2022-12-18T02:29:11.500Z,55.71
2022-12-18T02:30:11.404Z,55.42
2022-12-18T02:31:11.439Z,56.62
2022-12-18T02:34:56.519Z,57.72
2022-12-18T02:38:22.755Z,57.08
2022-12-18T02:41:48.995Z,56.34
2022-12-18T02:45:15.310Z,55.99
2022-12-18T02:46:15.359Z,55.72
2022-12-18T02:47:15.300Z,57.38
2022-12-18T02:48:15.275Z,58.64
2022-12-18T02:49:15.298Z,57.66
2022-12-18T02:55:07.789Z,61.04
2022-12-18T03:00:00.381Z,58.21
2022-12-18T03:01:00.314Z,59.90
2022-12-18T03:02:00.446Z,57.33
2022-12-18T03:03:00.418Z,56.42
2022-12-18T03:04:00.247Z,55.89
2022-12-18T03:05:00.240Z,58.09
2022-12-18T03:06:00.293Z,57.31
2022-12-18T03:07:00.236Z,58.02
2022-12-18T03:08:00.237Z,56.60
2022-12-18T03:09:00.213Z,56.80
2022-12-18T03:10:00.203Z,56.75
2022-12-18T03:11:00.194Z,57.72
2022-12-18T03:12:00.183Z,56.10
2022-12-18T03:13:00.197Z,57.71
2022-12-18T03:14:00.164Z,56.41
2022-12-18T03:15:00.152Z,57.63
2022-12-18T03:16:00.256Z,57.35
2022-12-18T03:17:00.208Z,57.21
2022-12-18T03:18:00.152Z,58.80
2022-12-18T03:19:00.128Z,58.11
2022-12-18T03:20:00.119Z,58.69
2022-12-18T03:21:00.113Z,58.38
2022-12-18T03:27:18.852Z,57.17
2022-12-18T03:28:18.856Z,57.64
2022-12-18T03:31:45.187Z,56.72
2022-12-18T03:32:45.095Z,57.16
2022-12-18T03:39:02.985Z,57.28
2022-12-18T03:40:02.981Z,58.31
2022-12-18T03:41:02.978Z,58.46
2022-12-18T03:42:02.966Z,58.20
2022-12-18T03:43:02.968Z,59.33
2022-12-18T03:44:02.945Z,60.36
2022-12-18T03:45:02.925Z,59.07
2022-12-18T03:46:02.963Z,57.79
2022-12-18T03:47:03.014Z,57.15
2022-12-18T03:48:02.925Z,59.04
2022-12-18T03:49:02.900Z,61.03
2022-12-18T03:50:05.199Z,59.59
2022-12-18T03:51:02.884Z,59.35
2022-12-18T03:52:02.874Z,59.99
2022-12-18T03:53:02.880Z,57.77
2022-12-18T03:54:02.860Z,57.91
2022-12-18T03:55:02.970Z,59.24
2022-12-18T03:56:02.837Z,58.54
2022-12-18T03:57:02.829Z,59.41
2022-12-18T03:58:02.840Z,59.38
2022-12-18T03:59:03.933Z,59.13
2022-12-18T04:00:03.925Z,61.83
2022-12-18T04:01:03.920Z,61.94
2022-12-18T04:02:04.133Z,58.69
2022-12-18T04:03:04.112Z,58.80
2022-12-18T04:04:03.919Z,58.56
2022-12-18T04:05:03.876Z,58.66
2022-12-18T04:06:03.867Z,58.49
2022-12-18T04:07:03.855Z,61.03
2022-12-18T04:08:03.861Z,59.60
2022-12-18T04:09:03.851Z,59.07
2022-12-18T04:10:03.836Z,58.16
2022-12-18T04:11:03.827Z,59.71
2022-12-18T04:12:03.812Z,59.98
2022-12-18T04:13:03.816Z,60.08
2022-12-18T04:14:07.183Z,59.20
2022-12-18T04:15:04.792Z,61.25
2022-12-18T04:16:03.824Z,60.58
2022-12-18T04:17:03.774Z,56.92
2022-12-18T04:18:03.772Z,59.31
2022-12-18T04:19:05.503Z,59.41
2022-12-18T04:20:03.751Z,60.25
2022-12-18T04:23:48.886Z,60.71
2022-12-18T04:24:48.873Z,59.03
2022-12-18T04:25:48.875Z,58.17
2022-12-18T04:26:48.853Z,60.64
2022-12-18T04:27:48.849Z,59.51
2022-12-18T04:28:48.858Z,59.59
2022-12-18T04:29:48.832Z,59.15
2022-12-18T04:30:48.895Z,59.17
2022-12-18T04:31:48.824Z,58.80
2022-12-18T04:32:52.222Z,59.11
2022-12-18T04:33:48.816Z,58.54
2022-12-18T04:34:48.880Z,59.88
2022-12-18T04:35:48.779Z,59.10
2022-12-18T04:36:48.768Z,57.74
2022-12-18T04:40:15.010Z,58.01
2022-12-18T04:41:15.001Z,59.17
2022-12-18T04:42:14.990Z,59.39
2022-12-18T04:43:15.057Z,59.95
2022-12-18T04:44:14.982Z,59.11
2022-12-18T04:45:14.964Z,59.55
2022-12-18T04:46:15.037Z,58.66
2022-12-18T04:47:14.949Z,58.56
2022-12-18T04:50:41.185Z,59.69
2022-12-18T04:51:41.171Z,59.02
2022-12-18T04:52:41.164Z,59.70
2022-12-18T04:53:41.514Z,57.54
2022-12-18T04:54:41.151Z,59.22
2022-12-18T04:55:41.139Z,58.49
2022-12-18T04:56:41.130Z,58.23
2022-12-18T04:57:41.116Z,58.30
2022-12-18T04:58:41.132Z,58.88
2022-12-18T04:59:41.097Z,58.97
2022-12-18T05:00:41.102Z,59.51
2022-12-18T05:01:41.266Z,57.50
2022-12-18T05:02:41.232Z,58.94
2022-12-18T05:03:41.477Z,58.92
2022-12-18T05:04:41.060Z,57.62
2022-12-18T05:05:41.152Z,58.52
2022-12-18T05:06:41.043Z,60.78
2022-12-18T05:07:41.034Z,60.95
2022-12-18T05:08:41.046Z,60.94
2022-12-18T05:09:41.010Z,61.42
2022-12-18T05:10:41.006Z,58.86
2022-12-18T05:11:40.995Z,59.31
2022-12-18T05:12:40.989Z,59.20
2022-12-18T05:13:41.441Z,60.30
2022-12-18T05:14:40.967Z,60.80
2022-12-18T05:15:40.964Z,61.60
2022-12-18T05:16:40.963Z,60.81
2022-12-18T05:17:40.939Z,60.32
2022-12-18T05:18:40.946Z,59.08
2022-12-18T05:19:40.926Z,61.06
2022-12-18T05:20:40.926Z,59.71
2022-12-18T05:21:41.009Z,60.93
2022-12-18T05:22:40.901Z,59.89
2022-12-18T05:23:41.453Z,62.16
2022-12-18T05:24:40.879Z,62.27
2022-12-18T05:25:40.871Z,62.93
2022-12-18T05:26:40.867Z,60.50
2022-12-18T05:27:40.857Z,59.16
2022-12-18T05:28:40.869Z,61.38
2022-12-18T05:29:40.836Z,60.15
2022-12-18T05:30:40.830Z,61.54
2022-12-18T05:31:42.006Z,63.51
2022-12-18T05:32:41.943Z,59.76
2022-12-18T05:33:42.251Z,60.21
2022-12-18T05:34:41.909Z,58.68
2022-12-18T05:35:41.899Z,60.30
2022-12-18T05:36:42.904Z,62.23
2022-12-18T05:37:43.497Z,61.12
2022-12-18T05:38:42.881Z,60.89
2022-12-18T05:39:41.874Z,60.35
2022-12-18T05:40:41.859Z,60.00
2022-12-18T05:41:41.864Z,58.86
2022-12-18T05:42:41.838Z,61.14
2022-12-18T05:43:42.498Z,60.25
2022-12-18T05:44:41.830Z,60.45
2022-12-18T05:45:41.823Z,61.32
2022-12-18T05:46:41.864Z,62.10
2022-12-18T05:47:41.809Z,59.85
2022-12-18T05:48:41.811Z,60.33
2022-12-18T05:49:41.781Z,60.21
2022-12-18T05:50:41.772Z,59.28
2022-12-18T05:51:41.767Z,60.14
2022-12-18T05:52:41.759Z,59.38
2022-12-18T05:53:42.106Z,59.29
2022-12-18T05:54:41.744Z,60.36
2022-12-18T05:55:41.736Z,60.18
2022-12-18T05:56:47.040Z,59.67
2022-12-18T05:57:43.713Z,59.36
2022-12-18T05:58:41.712Z,61.26
2022-12-18T05:59:41.698Z,60.14
2022-12-18T06:00:41.689Z,58.87
2022-12-18T06:01:41.816Z,59.81
2022-12-18T06:02:41.748Z,59.47
2022-12-18T06:03:42.142Z,59.89
2022-12-18T06:04:41.645Z,60.11
2022-12-18T06:05:41.645Z,62.03
2022-12-18T06:06:41.637Z,61.23
2022-12-18T06:07:41.620Z,60.48
2022-12-18T06:08:46.164Z,60.26
2022-12-18T06:09:43.702Z,60.72
2022-12-18T06:10:41.595Z,59.47
2022-12-18T06:11:41.588Z,59.76
2022-12-18T06:12:41.582Z,60.56
2022-12-18T06:14:13.498Z,61.46
2022-12-18T06:14:41.569Z,61.43
2022-12-18T06:15:41.565Z,61.08
2022-12-18T06:16:41.574Z,60.40
2022-12-18T06:17:41.547Z,59.76
2022-12-18T06:18:41.547Z,60.91
2022-12-18T06:19:41.533Z,61.86
2022-12-18T06:20:41.519Z,60.70
2022-12-18T06:21:41.496Z,59.57
2022-12-18T06:22:41.499Z,60.13
2022-12-18T06:23:41.846Z,61.40
2022-12-18T06:24:41.490Z,60.32
2022-12-18T06:25:41.566Z,61.81
2022-12-18T06:26:41.470Z,62.83
2022-12-18T06:27:41.446Z,60.17
2022-12-18T06:28:41.467Z,60.47
2022-12-18T06:29:41.432Z,60.78
2022-12-18T06:30:41.432Z,60.82
2022-12-18T06:31:41.478Z,60.53
2022-12-18T06:32:41.410Z,59.85
2022-12-18T06:33:41.827Z,59.64
2022-12-18T06:34:41.437Z,60.62
2022-12-18T06:35:41.388Z,60.40
2022-12-18T06:36:41.380Z,61.38
2022-12-18T06:37:41.363Z,61.95
2022-12-18T06:38:41.719Z,60.98
2022-12-18T06:39:41.355Z,61.31
2022-12-18T06:40:41.349Z,62.91
2022-12-18T06:41:41.421Z,64.10
2022-12-18T06:42:41.326Z,61.10
2022-12-18T06:43:41.751Z,61.18
2022-12-18T06:44:41.308Z,60.17
2022-12-18T06:45:41.379Z,61.88
2022-12-18T06:46:41.296Z,61.74
2022-12-18T06:47:41.286Z,61.48
2022-12-18T06:51:26.408Z,61.38
2022-12-18T06:52:26.403Z,60.66
2022-12-18T06:53:26.387Z,59.44
2022-12-18T06:54:26.401Z,59.52
2022-12-18T06:55:26.372Z,62.31
2022-12-18T06:56:26.373Z,61.78
2022-12-18T06:57:26.494Z,61.38
2022-12-18T06:58:26.347Z,61.68
2022-12-18T06:59:26.359Z,61.64
2022-12-18T07:00:26.328Z,61.24
2022-12-18T07:01:26.428Z,61.15
2022-12-18T07:02:26.390Z,60.68
2022-12-18T07:03:26.303Z,61.90
2022-12-18T07:04:26.317Z,61.37
2022-12-18T07:05:26.286Z,61.45
2022-12-18T07:06:26.279Z,61.17
2022-12-18T07:07:26.268Z,61.60
2022-12-18T07:08:26.258Z,59.51
2022-12-18T07:09:26.266Z,60.15
2022-12-18T07:10:26.245Z,60.32
2022-12-18T07:11:26.236Z,61.58
2022-12-18T07:12:26.225Z,62.22
2022-12-18T07:13:26.305Z,62.79
2022-12-18T07:14:26.224Z,62.07
2022-12-18T07:15:26.203Z,62.63
2022-12-18T07:16:26.338Z,60.67
2022-12-18T07:17:26.179Z,61.34
2022-12-18T07:18:26.174Z,61.54
2022-12-18T07:19:27.308Z,61.58
2022-12-18T07:20:27.281Z,61.90
2022-12-18T07:21:27.272Z,60.96
2022-12-18T07:22:27.250Z,61.51
2022-12-18T07:23:27.245Z,61.46
2022-12-18T07:24:27.262Z,60.86
2022-12-18T07:25:27.230Z,61.05
2022-12-18T07:26:27.214Z,61.16
2022-12-18T07:27:27.204Z,61.49
2022-12-18T07:28:27.203Z,60.44
2022-12-18T07:29:27.293Z,60.34
2022-12-18T07:30:27.171Z,60.90
2022-12-18T07:31:27.270Z,61.20
2022-12-18T07:32:27.172Z,61.17
2022-12-18T07:33:27.176Z,60.98
2022-12-18T07:34:27.160Z,60.64
2022-12-18T07:35:27.158Z,60.73
2022-12-18T07:36:27.138Z,61.20
2022-12-18T07:37:27.210Z,61.57
2022-12-18T07:38:27.105Z,60.96
2022-12-18T07:39:27.123Z,61.32
2022-12-18T07:40:27.107Z,61.69
2022-12-18T07:41:27.091Z,62.18
2022-12-18T07:42:27.071Z,61.77
2022-12-18T07:43:27.074Z,61.94
2022-12-18T07:44:27.110Z,62.12
2022-12-18T07:45:27.051Z,60.77
2022-12-18T07:46:27.124Z,61.74
2022-12-18T07:47:27.051Z,62.22
2022-12-18T07:48:27.050Z,61.23
2022-12-18T07:49:27.053Z,61.89
2022-12-18T07:50:27.016Z,62.59
